createdAt,value
2022-11-12T00:02:16.359Z,1.93
2022-11-12T00:05:18.050Z,2.60
2022-11-12T00:08:20.017Z,2.03
2022-11-12T00:11:21.654Z,2.27
2022-11-12T00:14:23.328Z,1.93
2022-11-12T00:17:24.950Z,2.80
2022-11-12T00:20:26.710Z,1.93
2022-11-12T00:23:28.316Z,2.77
2022-11-12T00:26:29.916Z,3.30
2022-11-12T00:29:31.513Z,2.53
2022-11-12T00:32:36.415Z,3.07
2022-11-12T00:35:38.084Z,1.83
2022-11-12T00:38:39.752Z,2.03
2022-11-12T00:41:41.423Z,3.57
2022-11-12T00:44:43.015Z,2.10
2022-11-12T00:47:44.704Z,2.30
2022-11-12T00:50:46.347Z,3.13
2022-11-12T00:53:51.370Z,3.00
2022-11-12T00:56:53.026Z,2.80
2022-11-12T00:59:54.655Z,3.30
2022-11-12T01:02:56.251Z,2.10
2022-11-12T01:06:09.478Z,3.43
2022-11-12T01:09:11.292Z,3.00
2022-11-12T01:12:12.978Z,3.33
2022-11-12T01:15:14.584Z,2.53
2022-11-12T01:18:16.198Z,4.17
2022-11-12T01:21:17.833Z,3.00
2022-11-12T01:24:21.460Z,3.93
2022-11-12T01:27:23.079Z,3.60
2022-11-12T01:30:25.419Z,2.77
2022-11-12T01:33:27.038Z,3.60
2022-11-12T01:36:38.157Z,2.17
2022-11-12T01:39:39.757Z,2.20
2022-11-12T01:42:41.424Z,2.40
2022-11-12T01:45:47.447Z,2.20
2022-11-12T01:48:54.869Z,3.17
2022-11-12T01:51:58.753Z,2.30
2022-11-12T01:55:11.119Z,3.10
2022-11-12T01:58:15.541Z,2.30
2022-11-12T02:01:17.234Z,1.90
2022-11-12T02:04:19.852Z,3.23
2022-11-12T02:07:23.294Z,2.90
2022-11-12T02:10:25.582Z,2.63
2022-11-12T02:13:45.871Z,2.90
2022-11-12T02:16:48.713Z,2.10
2022-11-12T02:19:52.605Z,2.77
2022-11-12T02:22:54.182Z,3.27
2022-11-12T02:25:55.799Z,2.67
2022-11-12T02:28:57.462Z,2.33
2022-11-12T02:31:59.289Z,5.13
2022-11-12T02:35:00.940Z,2.87
2022-11-12T02:38:03.239Z,2.60
2022-11-12T02:41:05.016Z,3.60
2022-11-12T02:44:06.642Z,7.23
2022-11-12T02:47:08.301Z,3.17
2022-11-12T02:50:10.614Z,2.37
2022-11-12T02:53:14.250Z,3.70
2022-11-12T02:56:15.850Z,2.40
2022-11-12T02:59:17.630Z,2.70
2022-11-12T03:02:19.344Z,3.70
2022-11-12T03:05:20.922Z,2.30
2022-11-12T03:08:22.664Z,2.20
2022-11-12T03:11:24.390Z,2.23
2022-11-12T03:14:39.269Z,3.17
2022-11-12T03:17:40.854Z,2.57
2022-11-12T03:20:42.441Z,3.03
2022-11-12T03:23:44.089Z,2.33
2022-11-12T03:26:45.690Z,2.87
2022-11-12T03:29:47.274Z,3.13
2022-11-12T03:32:48.867Z,3.23
2022-11-12T03:35:50.775Z,2.50
2022-11-12T03:38:52.398Z,2.70
2022-11-12T03:41:54.020Z,3.20
2022-11-12T03:44:55.626Z,4.27
2022-11-12T03:48:00.430Z,3.67
2022-11-12T03:51:02.038Z,3.60
2022-11-12T03:54:03.867Z,9.30
2022-11-12T03:57:05.458Z,4.70
2022-11-12T04:00:08.559Z,3.30
2022-11-12T04:03:10.274Z,3.00
2022-11-12T04:06:30.361Z,6.47
2022-11-12T04:09:32.052Z,3.70
2022-11-12T04:12:52.632Z,2.30
2022-11-12T04:16:18.720Z,2.57
2022-11-12T04:19:39.122Z,2.83
2022-11-12T04:22:40.728Z,3.83
2022-11-12T04:26:00.744Z,3.90
2022-11-12T04:29:21.068Z,3.17
2022-11-12T04:32:23.429Z,2.53
2022-11-12T04:35:26.966Z,4.93
2022-11-12T04:38:50.166Z,2.70
2022-11-12T04:42:10.233Z,3.97
2022-11-12T04:45:11.955Z,2.70
2022-11-12T04:48:13.583Z,2.73
2022-11-12T04:51:41.588Z,2.47
2022-11-12T04:54:43.394Z,3.77
2022-11-12T04:57:44.974Z,3.23
2022-11-12T05:00:47.402Z,3.03
2022-11-12T05:03:49.013Z,8.57
2022-11-12T05:06:53.479Z,6.90
2022-11-12T05:09:55.156Z,5.90
2022-11-12T05:12:58.084Z,3.43
2022-11-12T05:15:59.666Z,3.67
2022-11-12T05:19:01.435Z,2.57
2022-11-12T05:22:05.937Z,2.63
2022-11-12T05:25:08.270Z,4.07
2022-11-12T05:28:09.905Z,3.00
2022-11-12T05:31:11.562Z,3.90
2022-11-12T05:34:15.536Z,4.67
2022-11-12T05:37:21.149Z,2.87
2022-11-12T05:40:24.864Z,3.00
2022-11-12T05:43:26.489Z,4.60
2022-11-12T05:46:36.458Z,4.63
2022-11-12T05:49:38.075Z,2.70
2022-11-12T05:52:39.654Z,4.73
2022-11-12T05:55:41.241Z,3.80
2022-11-12T05:58:42.950Z,4.77
2022-11-12T06:01:44.608Z,5.10
2022-11-12T06:04:46.223Z,4.07
2022-11-12T06:07:47.799Z,3.10
2022-11-12T06:10:50.695Z,3.73
2022-11-12T06:13:52.317Z,3.97
2022-11-12T06:16:53.906Z,4.37
2022-11-12T06:19:55.523Z,5.13
2022-11-12T06:22:57.453Z,3.57
2022-11-12T06:25:59.637Z,4.33
2022-11-12T06:29:01.260Z,4.63
2022-11-12T06:32:02.882Z,6.93
2022-11-12T06:35:04.901Z,5.90
2022-11-12T06:38:06.550Z,7.30
2022-11-12T06:41:10.618Z,6.73
2022-11-12T06:44:12.241Z,6.00
2022-11-12T06:47:14.376Z,8.13
2022-11-12T06:50:16.071Z,7.43
2022-11-12T06:53:17.682Z,6.40
2022-11-12T06:56:19.285Z,6.53
2022-11-12T06:59:20.891Z,6.20
2022-11-12T07:02:22.563Z,10.37
2022-11-12T07:05:24.175Z,8.87
2022-11-12T07:08:26.092Z,8.80
2022-11-12T07:11:28.067Z,8.73
2022-11-12T07:14:29.665Z,9.03
2022-11-12T07:17:31.258Z,10.33
2022-11-12T07:20:32.911Z,8.33
2022-11-12T07:23:35.954Z,7.43
2022-11-12T07:26:37.518Z,7.13
2022-11-12T07:29:47.384Z,6.77
2022-11-12T07:32:51.959Z,6.07
2022-11-12T07:36:14.656Z,6.23
2022-11-12T07:39:16.259Z,6.43
2022-11-12T07:42:17.854Z,4.13
2022-11-12T07:45:19.483Z,4.03
2022-11-12T07:48:21.130Z,4.23
2022-11-12T07:51:25.456Z,4.20
2022-11-12T07:54:27.061Z,4.47
2022-11-12T07:57:28.710Z,4.37
2022-11-12T08:00:30.381Z,4.10
2022-11-12T08:03:32.049Z,4.13
2022-11-12T08:06:33.790Z,4.33
2022-11-12T08:09:35.437Z,3.67
2022-11-12T08:12:37.080Z,3.50
2022-11-12T08:15:38.713Z,3.47
2022-11-12T08:18:40.606Z,3.83
2022-11-12T08:21:42.379Z,3.47
2022-11-12T08:24:43.969Z,4.27
2022-11-12T08:27:45.571Z,4.67
2022-11-12T08:30:47.356Z,3.77
2022-11-12T08:33:49.289Z,4.43
2022-11-12T08:36:50.902Z,4.80
2022-11-12T08:39:52.547Z,4.23
2022-11-12T08:43:02.787Z,5.40
2022-11-12T08:46:04.958Z,4.23
2022-11-12T08:49:06.644Z,3.70
2022-11-12T08:52:08.246Z,3.10
2022-11-12T08:55:09.926Z,3.30
2022-11-12T08:58:11.599Z,3.90
2022-11-12T09:01:13.342Z,3.33
2022-11-12T09:04:14.990Z,4.37
2022-11-12T09:07:43.444Z,4.53
2022-11-12T09:10:39.391Z,4.63
2022-11-12T09:13:41.122Z,5.17
2022-11-12T09:16:42.741Z,4.60
2022-11-12T09:19:44.359Z,4.93
2022-11-12T09:22:45.960Z,3.50
2022-11-12T09:25:47.542Z,4.77
2022-11-12T09:28:49.203Z,4.43
2022-11-12T09:31:51.163Z,5.87
2022-11-12T09:34:52.762Z,4.77
2022-11-12T09:37:54.377Z,5.53
2022-11-12T09:41:11.462Z,5.20
2022-11-12T09:44:18.102Z,5.77
2022-11-12T09:47:31.672Z,5.30
2022-11-12T09:50:36.153Z,5.30
2022-11-12T09:53:54.591Z,5.27
2022-11-12T09:56:56.269Z,4.10
2022-11-12T09:59:58.624Z,5.93
2022-11-12T10:03:20.586Z,4.63
2022-11-12T10:06:27.724Z,6.13
2022-11-12T10:09:41.343Z,5.80
2022-11-12T10:12:48.278Z,5.20
2022-11-12T10:16:29.692Z,4.77
2022-11-12T10:19:55.670Z,5.20
2022-11-12T10:23:19.642Z,4.20
2022-11-12T10:26:24.681Z,4.13
2022-11-12T10:30:06.191Z,3.73
2022-11-12T10:33:15.989Z,5.83
2022-11-12T10:36:34.636Z,5.00
2022-11-12T10:39:41.654Z,8.10
2022-11-12T10:43:15.743Z,5.50
2022-11-12T10:46:23.162Z,7.33
2022-11-12T10:49:25.338Z,5.27
2022-11-12T10:52:26.963Z,3.80
2022-11-12T10:55:35.030Z,3.83
2022-11-12T10:58:36.707Z,4.33
2022-11-12T11:01:43.041Z,3.13
2022-11-12T11:04:47.089Z,4.20
2022-11-12T11:07:51.757Z,3.83
2022-11-12T11:11:16.563Z,3.30
2022-11-12T11:14:28.875Z,2.73
2022-11-12T11:17:30.607Z,3.50
2022-11-12T11:20:42.490Z,3.20
2022-11-12T11:23:52.715Z,3.07
2022-11-12T11:27:19.383Z,3.87
2022-11-12T11:30:22.142Z,3.20
2022-11-12T11:33:46.698Z,3.60
2022-11-12T11:37:03.080Z,3.30
2022-11-12T11:40:15.868Z,3.57
2022-11-12T11:43:40.537Z,3.70
2022-11-12T11:46:51.099Z,3.80
2022-11-12T11:50:25.053Z,3.17
2022-11-12T11:53:35.935Z,2.80
2022-11-12T11:56:42.617Z,4.93
2022-11-12T12:00:11.652Z,3.40
2022-11-12T12:03:42.454Z,4.07
2022-11-12T12:07:09.225Z,3.50
2022-11-12T12:11:06.801Z,3.47
2022-11-12T12:14:32.923Z,4.33
2022-11-12T12:17:58.903Z,3.03
2022-11-12T12:21:18.879Z,3.20
2022-11-12T12:24:36.420Z,3.03
2022-11-12T12:27:46.686Z,2.83
2022-11-12T12:30:58.012Z,2.97
2022-11-12T12:34:05.020Z,3.90
2022-11-12T12:37:45.611Z,3.50
2022-11-12T12:40:58.666Z,3.90
2022-11-12T12:44:06.083Z,3.10
2022-11-12T12:47:12.742Z,3.10
2022-11-12T12:50:17.636Z,2.37
2022-11-12T12:53:33.466Z,2.50
2022-11-12T12:56:45.718Z,2.50
2022-11-12T12:59:47.435Z,2.97
2022-11-12T13:02:49.134Z,3.43
2022-11-12T13:06:14.844Z,2.60
2022-11-12T13:09:16.374Z,2.03
2022-11-12T13:12:17.993Z,2.17
2022-11-12T13:15:43.310Z,2.13
2022-11-12T13:18:56.795Z,4.17
2022-11-12T13:22:20.270Z,2.20
2022-11-12T13:25:21.864Z,1.90
2022-11-12T13:28:23.590Z,1.83
2022-11-12T13:31:28.423Z,2.27
2022-11-12T13:34:33.608Z,5.73
2022-11-12T13:37:35.614Z,5.70
2022-11-12T13:40:59.703Z,3.50
2022-11-12T13:44:06.015Z,2.40
2022-11-12T13:47:16.274Z,3.70
2022-11-12T13:50:23.085Z,2.53
2022-11-12T13:53:27.822Z,4.53
2022-11-12T13:56:33.787Z,3.23
2022-11-12T13:59:35.412Z,3.23
2022-11-12T14:02:41.580Z,2.27
2022-11-12T14:05:49.442Z,2.37
2022-11-12T14:09:09.697Z,2.40
2022-11-12T14:12:29.615Z,2.67
2022-11-12T14:15:46.495Z,6.00
2022-11-12T14:19:29.363Z,6.03
2022-11-12T14:22:42.502Z,3.40
2022-11-12T14:25:55.614Z,2.73
2022-11-12T14:29:17.403Z,8.93
2022-11-12T14:32:18.993Z,4.70
2022-11-12T14:35:37.169Z,3.27
2022-11-12T14:38:44.304Z,4.63
2022-11-12T14:41:47.630Z,2.20
2022-11-12T14:44:49.352Z,2.23
2022-11-12T14:47:52.943Z,3.03
2022-11-12T14:51:04.204Z,3.20
2022-11-12T14:54:08.678Z,2.67
2022-11-12T14:57:20.784Z,1.90
2022-11-12T15:00:40.806Z,3.37
2022-11-12T15:03:42.531Z,3.30
2022-11-12T15:06:53.238Z,4.13
2022-11-12T15:09:54.867Z,5.23
2022-11-12T15:13:15.178Z,3.67
2022-11-12T15:16:21.009Z,4.40
2022-11-12T15:19:27.389Z,3.80
2022-11-12T15:22:40.344Z,5.17
2022-11-12T15:25:42.237Z,5.60
2022-11-12T15:29:18.559Z,5.97
2022-11-12T15:32:20.140Z,3.10
2022-11-12T15:35:24.831Z,2.70
2022-11-12T15:38:32.465Z,2.93
2022-11-12T15:41:34.177Z,2.83
2022-11-12T15:44:37.111Z,2.30
2022-11-12T15:47:38.747Z,2.83
2022-11-12T15:50:40.440Z,2.57
2022-11-12T15:53:42.043Z,2.20
2022-11-12T15:56:43.730Z,2.53
2022-11-12T15:59:48.598Z,3.43
2022-11-12T16:02:57.160Z,3.00
2022-11-12T16:06:02.589Z,2.63
2022-11-12T16:09:07.421Z,2.83
2022-11-12T16:12:12.166Z,2.93
2022-11-12T16:15:15.403Z,4.67
2022-11-12T16:18:17.048Z,2.97
2022-11-12T16:21:20.953Z,3.20
2022-11-12T16:24:22.830Z,3.00
2022-11-12T16:27:32.875Z,3.10
2022-11-12T16:30:36.119Z,2.93
2022-11-12T16:33:37.750Z,2.93
2022-11-12T16:36:39.809Z,2.77
2022-11-12T16:39:42.556Z,3.07
2022-11-12T16:42:47.000Z,2.40
2022-11-12T16:45:48.654Z,2.33
2022-11-12T16:48:50.268Z,2.30
2022-11-12T16:51:51.863Z,4.10
2022-11-12T16:54:53.460Z,2.40
2022-11-12T16:57:55.060Z,3.70
2022-11-12T17:00:56.821Z,3.53
2022-11-12T17:03:58.948Z,2.30
2022-11-12T17:07:06.973Z,3.67
2022-11-12T17:10:09.071Z,2.20
2022-11-12T17:13:13.286Z,1.90
2022-11-12T17:16:15.239Z,2.00
2022-11-12T17:19:16.912Z,2.40
2022-11-12T17:22:23.918Z,4.23
2022-11-12T17:25:25.519Z,2.90
2022-11-12T17:28:29.057Z,3.83
2022-11-12T17:31:30.656Z,2.23
2022-11-12T17:34:32.318Z,1.77
2022-11-12T17:37:33.952Z,3.23
2022-11-12T17:40:35.569Z,3.77
2022-11-12T17:43:38.178Z,5.07
2022-11-12T17:46:48.332Z,15.47
2022-11-12T17:49:49.956Z,7.00
2022-11-12T17:52:51.674Z,8.07
2022-11-12T17:55:57.495Z,8.67
2022-11-12T17:58:59.969Z,7.57
2022-11-12T18:02:01.613Z,7.47
2022-11-12T18:05:05.455Z,6.70
2022-11-12T18:08:07.096Z,8.13
2022-11-12T18:11:11.871Z,3.40
2022-11-12T18:14:14.264Z,2.07
2022-11-12T18:17:15.966Z,1.40
2022-11-12T18:20:19.515Z,1.30
2022-11-12T18:23:21.214Z,1.20
2022-11-12T18:26:22.998Z,1.50
2022-11-12T18:29:27.673Z,1.40
2022-11-12T18:32:29.441Z,1.30
2022-11-12T18:35:31.249Z,2.60
2022-11-12T18:38:34.627Z,1.40
2022-11-12T18:41:37.428Z,1.70
2022-11-12T18:44:39.066Z,2.50
2022-11-12T18:47:40.714Z,2.07
2022-11-12T18:50:42.319Z,2.23
2022-11-12T18:53:45.580Z,1.60
2022-11-12T18:56:47.891Z,2.37
2022-11-12T18:59:51.981Z,5.57
2022-11-12T19:02:53.724Z,6.23
2022-11-12T19:06:06.601Z,3.50
2022-11-12T19:09:11.741Z,1.83
2022-11-12T19:12:13.341Z,2.40
2022-11-12T19:15:15.078Z,2.43
2022-11-12T19:18:16.713Z,2.30
2022-11-12T19:21:21.268Z,2.67
2022-11-12T19:24:22.886Z,2.80
2022-11-12T19:27:24.486Z,1.90
2022-11-12T19:30:26.150Z,3.33
2022-11-12T19:33:27.847Z,4.10
2022-11-12T19:36:30.550Z,4.53
2022-11-12T19:39:32.169Z,3.60
2022-11-12T19:42:33.786Z,4.20
2022-11-12T19:45:35.383Z,2.40
2022-11-12T19:48:38.126Z,6.73
2022-11-12T19:51:39.743Z,3.70
2022-11-12T19:54:41.346Z,3.23
2022-11-12T19:57:44.883Z,3.57
2022-11-12T20:00:46.518Z,2.40
2022-11-12T20:03:48.186Z,2.27
2022-11-12T20:06:49.888Z,1.80
2022-11-12T20:09:54.183Z,2.03
2022-11-12T20:13:01.668Z,1.97
2022-11-12T20:16:08.045Z,1.83
2022-11-12T20:19:09.661Z,2.30
2022-11-12T20:22:11.886Z,2.13
2022-11-12T20:25:13.508Z,2.20
2022-11-12T20:28:15.109Z,3.70
2022-11-12T20:31:20.513Z,4.17
2022-11-12T20:34:22.362Z,3.13
2022-11-12T20:37:24.005Z,3.60
2022-11-12T20:40:25.612Z,3.33
2022-11-12T20:43:29.299Z,3.20
2022-11-12T20:46:31.103Z,2.83
2022-11-12T20:49:32.753Z,2.50
2022-11-12T20:52:34.540Z,2.73
2022-11-12T20:55:36.205Z,2.73
2022-11-12T20:58:38.479Z,2.60
2022-11-12T21:01:40.580Z,2.03
2022-11-12T21:04:42.274Z,2.60
2022-11-12T21:07:43.894Z,3.47
2022-11-12T21:10:49.653Z,2.53
2022-11-12T21:13:51.253Z,2.30
2022-11-12T21:16:52.872Z,3.00
2022-11-12T21:19:54.493Z,2.60
2022-11-12T21:22:57.309Z,3.23
2022-11-12T21:26:13.469Z,3.10
2022-11-12T21:29:18.792Z,2.80
2022-11-12T21:32:20.705Z,2.70
2022-11-12T21:35:22.371Z,3.70
2022-11-12T21:38:24.205Z,2.80
2022-11-12T21:41:28.143Z,3.47
2022-11-12T21:44:29.749Z,3.83
2022-11-12T21:47:31.339Z,3.37
2022-11-12T21:50:32.975Z,2.60
2022-11-12T21:53:34.828Z,3.57
2022-11-12T21:56:37.822Z,3.67
2022-11-12T21:59:39.487Z,2.87
2022-11-12T22:02:41.195Z,3.13
2022-11-12T22:05:42.806Z,2.43
2022-11-12T22:08:47.465Z,4.37
2022-11-12T22:11:49.088Z,2.80
2022-11-12T22:14:55.863Z,3.17
2022-11-12T22:17:58.389Z,3.60
2022-11-12T22:21:07.327Z,2.67
2022-11-12T22:24:10.493Z,5.77
2022-11-12T22:27:12.065Z,4.90
2022-11-12T22:30:13.830Z,4.83
2022-11-12T22:33:15.452Z,3.83
2022-11-12T22:36:22.412Z,5.27
2022-11-12T22:39:24.072Z,6.00
2022-11-12T22:42:25.729Z,4.20
2022-11-12T22:45:27.351Z,3.03
2022-11-12T22:48:29.920Z,3.50
2022-11-12T22:51:34.455Z,2.90
2022-11-12T22:54:36.120Z,3.00
2022-11-12T22:57:37.781Z,3.03
2022-11-12T23:00:39.465Z,2.43
2022-11-12T23:03:41.063Z,3.37
2022-11-12T23:06:42.752Z,2.40
2022-11-12T23:09:44.403Z,3.10
2022-11-12T23:12:46.031Z,2.87
2022-11-12T23:15:47.947Z,3.03
2022-11-12T23:18:50.988Z,3.07
2022-11-12T23:21:53.057Z,2.30
2022-11-12T23:24:54.697Z,2.77
2022-11-12T23:27:56.265Z,2.30
2022-11-12T23:30:58.027Z,2.23
2022-11-12T23:34:00.364Z,3.13
2022-11-12T23:37:02.079Z,2.97
2022-11-12T23:40:03.992Z,2.20
2022-11-12T23:43:05.640Z,2.47
2022-11-12T23:46:07.273Z,2.63
2022-11-12T23:49:08.940Z,2.93
2022-11-12T23:52:10.554Z,3.20
2022-11-12T23:55:12.127Z,4.20
2022-11-12T23:58:13.758Z,4.43
